Back to Top

Language: 

My Weather Underground Personal Weather Station Historical Data with Graphs...

Delerius Weather Station Historical Data
Daily Summary for January 2, 2018 Units:  English    Metric   Both
« Previous Day
Next Day »
Daily Weekly Monthly Yearly Custom
  High: Low: Average:
Temperature: 49.5 °F 39.6 °F 43.4 °F
Dew Point: 46.7 °F 34.7 °F 39.9 °F
Humidity: 95 % 74 % 87 %
Wind Speed: 29.0 mph 0.0 mph 11.2 mph
Wind Gust: 42.0 mph - -
Wind:- - SW
Pressure: 29.71 in 28.96 in -
Precipitation: 0.16 in    
Historical Graphs
 
 
Tabular Data for January 2, 2018
Time Temperature Dew Point Pressure Wind Wind Speed Wind Gust Humidity Rainfall Rate (Hourly) solar Conditions
00:01 42.6 °F 38.4 °F 29.68 in WNW 14.0 mph 24.0 mph 85 % 0.00 in 0 W/m2
00:02 42.6 °F 38.4 °F 29.68 in WNW 13.0 mph 22.0 mph 85 % 0.00 in 0 W/m2
00:07 42.6 °F 38.4 °F 29.68 in WNW 13.0 mph 21.0 mph 85 % 0.00 in 0 W/m2
00:08 42.6 °F 38.4 °F 29.69 in WNW 13.0 mph 20.0 mph 85 % 0.00 in 0 W/m2
00:13 42.6 °F 38.4 °F 29.69 in WNW 12.0 mph 19.0 mph 85 % 0.00 in 0 W/m2
00:17 42.6 °F 38.4 °F 29.69 in WNW 12.0 mph 18.0 mph 85 % 0.00 in 0 W/m2
00:20 42.6 °F 38.4 °F 29.69 in WNW 9.0 mph 15.0 mph 85 % 0.00 in 0 W/m2
00:23 42.6 °F 38.4 °F 29.69 in WNW 10.0 mph 16.0 mph 85 % 0.00 in 0 W/m2
00:27 42.6 °F 38.4 °F 29.69 in West 11.0 mph 16.0 mph 85 % 0.00 in 0 W/m2
00:32 42.8 °F 38.6 °F 29.69 in WNW 16.0 mph 22.0 mph 85 % 0.00 in 0 W/m2
00:33 43.0 °F 38.8 °F 29.69 in WNW 15.0 mph 22.0 mph 85 % 0.00 in 0 W/m2
00:38 43.0 °F 38.8 °F 29.69 in WNW 13.0 mph 21.0 mph 85 % 0.00 in 0 W/m2
00:43 43.0 °F 38.5 °F 29.69 in WNW 13.0 mph 23.0 mph 84 % 0.00 in 0 W/m2
00:47 43.0 °F 38.8 °F 29.69 in West 16.0 mph 23.0 mph 85 % 0.00 in 0 W/m2
00:52 43.0 °F 38.8 °F 29.70 in WNW 14.0 mph 23.0 mph 85 % 0.00 in 0 W/m2
00:55 43.0 °F 38.8 °F 29.69 in West 15.0 mph 23.0 mph 85 % 0.00 in 0 W/m2
01:00 43.0 °F 38.8 °F 29.70 in WNW 16.0 mph 23.0 mph 85 % 0.00 in 0 W/m2
01:02 43.0 °F 38.8 °F 29.70 in WNW 14.0 mph 21.0 mph 85 % 0.00 in 0 W/m2
01:03 43.0 °F 38.8 °F 29.70 in WNW 15.0 mph 26.0 mph 85 % 0.00 in 0 W/m2
01:08 42.8 °F 38.6 °F 29.70 in WNW 13.0 mph 20.0 mph 85 % 0.00 in 0 W/m2
01:13 42.6 °F 38.4 °F 29.70 in WNW 14.0 mph 22.0 mph 85 % 0.00 in 0 W/m2
01:14 42.6 °F 38.4 °F 29.70 in WNW 14.0 mph 22.0 mph 85 % 0.00 in 0 W/m2
01:19 42.6 °F 38.4 °F 29.70 in WNW 15.0 mph 21.0 mph 85 % 0.00 in 0 W/m2
01:24 42.6 °F 38.4 °F 29.70 in WNW 16.0 mph 22.0 mph 85 % 0.00 in 0 W/m2
01:27 42.6 °F 38.4 °F 29.70 in WNW 15.0 mph 21.0 mph 85 % 0.00 in 0 W/m2
01:29 42.4 °F 38.2 °F 29.70 in WNW 18.0 mph 27.0 mph 85 % 0.00 in 0 W/m2
01:32 42.6 °F 38.4 °F 29.70 in WNW 16.0 mph 25.0 mph 85 % 0.00 in 0 W/m2
01:37 42.6 °F 38.4 °F 29.70 in WNW 16.0 mph 22.0 mph 85 % 0.00 in 0 W/m2
01:42 42.6 °F 38.4 °F 29.70 in WNW 18.0 mph 26.0 mph 85 % 0.00 in 0 W/m2
01:45 42.6 °F 38.4 °F 29.69 in WNW 17.0 mph 25.0 mph 85 % 0.00 in 0 W/m2
01:49 42.6 °F 38.4 °F 29.70 in WNW 16.0 mph 26.0 mph 85 % 0.00 in 0 W/m2
01:52 42.4 °F 38.5 °F 29.70 in WNW 17.0 mph 25.0 mph 86 % 0.00 in 0 W/m2
01:57 42.4 °F 38.5 °F 29.70 in WNW 17.0 mph 29.0 mph 86 % 0.00 in 0 W/m2
01:58 42.4 °F 38.5 °F 29.70 in WNW 17.0 mph 29.0 mph 86 % 0.00 in 0 W/m2
02:02 42.4 °F 38.5 °F 29.70 in WNW 16.0 mph 26.0 mph 86 % 0.00 in 0 W/m2
02:03 42.4 °F 38.5 °F 29.70 in WNW 16.0 mph 26.0 mph 86 % 0.00 in 0 W/m2
02:08 42.4 °F 38.5 °F 29.70 in WNW 17.0 mph 26.0 mph 86 % 0.00 in 0 W/m2
02:09 42.4 °F 38.5 °F 29.70 in WNW 16.0 mph 26.0 mph 86 % 0.00 in 0 W/m2
02:13 42.4 °F 38.5 °F 29.70 in WNW 15.0 mph 22.0 mph 86 % 0.00 in 0 W/m2
02:14 42.4 °F 38.5 °F 29.70 in WNW 13.0 mph 22.0 mph 86 % 0.00 in 0 W/m2
02:19 42.4 °F 38.5 °F 29.70 in WNW 15.0 mph 25.0 mph 86 % 0.00 in 0 W/m2
02:21 42.4 °F 38.5 °F 29.70 in WNW 14.0 mph 20.0 mph 86 % 0.00 in 0 W/m2
02:26 42.3 °F 38.4 °F 29.71 in WNW 13.0 mph 20.0 mph 86 % 0.00 in 0 W/m2
02:31 42.3 °F 38.7 °F 29.71 in WNW 12.0 mph 16.0 mph 87 % 0.00 in 0 W/m2
02:32 42.3 °F 38.7 °F 29.71 in WNW 12.0 mph 20.0 mph 87 % 0.00 in 0 W/m2
02:33 42.3 °F 38.7 °F 29.70 in WNW 12.0 mph 20.0 mph 87 % 0.00 in 0 W/m2
02:38 42.3 °F 38.7 °F 29.70 in WNW 13.0 mph 22.0 mph 87 % 0.00 in 0 W/m2
02:43 42.3 °F 38.7 °F 29.70 in WNW 14.0 mph 24.0 mph 87 % 0.00 in 0 W/m2
02:46 42.3 °F 38.7 °F 29.70 in WNW 16.0 mph 26.0 mph 87 % 0.00 in 0 W/m2
02:47 42.3 °F 38.7 °F 29.70 in WNW 17.0 mph 26.0 mph 87 % 0.00 in 0 W/m2
02:52 42.3 °F 38.7 °F 29.70 in WNW 15.0 mph 25.0 mph 87 % 0.00 in 0 W/m2
02:57 42.3 °F 38.7 °F 29.71 in WNW 15.0 mph 28.0 mph 87 % 0.00 in 0 W/m2
03:02 42.3 °F 38.4 °F 29.71 in WNW 14.0 mph 21.0 mph 86 % 0.00 in 0 W/m2
03:07 42.3 °F 38.4 °F 29.71 in WNW 15.0 mph 22.0 mph 86 % 0.00 in 0 W/m2
03:09 42.3 °F 38.4 °F 29.71 in WNW 14.0 mph 22.0 mph 86 % 0.00 in 0 W/m2
03:14 42.3 °F 38.4 °F 29.71 in WNW 16.0 mph 22.0 mph 86 % 0.00 in 0 W/m2
03:15 42.3 °F 38.4 °F 29.71 in WNW 17.0 mph 25.0 mph 86 % 0.00 in 0 W/m2
03:20 42.3 °F 38.4 °F 29.70 in WNW 16.0 mph 24.0 mph 86 % 0.00 in 0 W/m2
03:22 42.3 °F 38.4 °F 29.70 in WNW 15.0 mph 24.0 mph 86 % 0.00 in 0 W/m2
03:27 42.3 °F 38.4 °F 29.70 in WNW 16.0 mph 24.0 mph 86 % 0.00 in 0 W/m2
03:29 42.3 °F 38.4 °F 29.70 in WNW 14.0 mph 22.0 mph 86 % 0.00 in 0 W/m2
03:34 42.3 °F 38.4 °F 29.70 in WNW 15.0 mph 25.0 mph 86 % 0.00 in 0 W/m2
03:39 42.3 °F 38.4 °F 29.70 in WNW 17.0 mph 24.0 mph 86 % 0.00 in 0 W/m2
03:44 42.3 °F 38.1 °F 29.69 in WNW 14.0 mph 22.0 mph 85 % 0.00 in 0 W/m2
03:45 42.3 °F 38.4 °F 29.69 in WNW 13.0 mph 18.0 mph 86 % 0.00 in 0 W/m2
03:50 42.3 °F 38.1 °F 29.70 in WNW 15.0 mph 25.0 mph 85 % 0.00 in 0 W/m2
03:51 42.3 °F 38.1 °F 29.70 in WNW 15.0 mph 25.0 mph 85 % 0.00 in 0 W/m2
03:55 42.3 °F 38.1 °F 29.70 in WNW 12.0 mph 20.0 mph 85 % 0.00 in 0 W/m2
03:57 42.3 °F 38.1 °F 29.70 in WNW 13.0 mph 21.0 mph 85 % 0.00 in 0 W/m2
04:02 42.3 °F 38.1 °F 29.70 in West 12.0 mph 19.0 mph 85 % 0.00 in 0 W/m2
04:03 42.3 °F 38.1 °F 29.70 in West 12.0 mph 19.0 mph 85 % 0.00 in 0 W/m2
04:08 42.1 °F 37.6 °F 29.70 in WNW 11.0 mph 18.0 mph 84 % 0.00 in 0 W/m2
04:09 42.1 °F 37.6 °F 29.70 in West 11.0 mph 16.0 mph 84 % 0.00 in 0 W/m2
04:10 42.1 °F 37.6 °F 29.70 in West 10.0 mph 14.0 mph 84 % 0.00 in 0 W/m2
04:15 41.9 °F 37.7 °F 29.70 in West 13.0 mph 19.0 mph 85 % 0.00 in 0 W/m2
04:17 41.9 °F 37.7 °F 29.71 in West 16.0 mph 24.0 mph 85 % 0.00 in 0 W/m2
04:21 41.9 °F 37.7 °F 29.71 in West 14.0 mph 23.0 mph 85 % 0.00 in 0 W/m2
04:26 41.7 °F 37.5 °F 29.71 in West 13.0 mph 20.0 mph 85 % 0.00 in 0 W/m2
04:29 41.7 °F 37.5 °F 29.71 in West 14.0 mph 21.0 mph 85 % 0.00 in 0 W/m2
04:35 41.7 °F 37.5 °F 29.71 in West 18.0 mph 27.0 mph 85 % 0.00 in 0 W/m2
04:40 41.5 °F 37.7 °F 29.71 in West 16.0 mph 22.0 mph 86 % 0.00 in 0 W/m2
04:41 41.5 °F 37.7 °F 29.71 in West 15.0 mph 20.0 mph 86 % 0.00 in 0 W/m2
04:46 41.5 °F 37.7 °F 29.71 in West 13.0 mph 20.0 mph 86 % 0.00 in 0 W/m2
04:51 41.4 °F 37.5 °F 29.71 in West 14.0 mph 23.0 mph 86 % 0.00 in 0 W/m2
04:52 41.4 °F 37.5 °F 29.71 in West 14.0 mph 23.0 mph 86 % 0.00 in 0 W/m2
04:57 41.2 °F 37.6 °F 29.71 in West 12.0 mph 19.0 mph 87 % 0.00 in 0 W/m2
04:58 41.2 °F 37.6 °F 29.71 in West 13.0 mph 19.0 mph 87 % 0.00 in 0 W/m2
05:03 41.0 °F 37.4 °F 29.70 in West 12.0 mph 16.0 mph 87 % 0.00 in 0 W/m2
05:04 41.0 °F 37.4 °F 29.70 in West 12.0 mph 18.0 mph 87 % 0.00 in 0 W/m2
05:05 41.0 °F 37.4 °F 29.70 in West 13.0 mph 19.0 mph 87 % 0.00 in 0 W/m2
05:10 40.6 °F 37.1 °F 29.70 in West 13.0 mph 18.0 mph 87 % 0.00 in 0 W/m2
05:11 40.6 °F 37.1 °F 29.70 in West 12.0 mph 18.0 mph 87 % 0.00 in 0 W/m2
05:16 40.6 °F 37.4 °F 29.71 in West 13.0 mph 22.0 mph 88 % 0.00 in 0 W/m2
05:17 40.6 °F 37.1 °F 29.71 in West 12.0 mph 16.0 mph 87 % 0.00 in 0 W/m2
05:22 40.5 °F 36.9 °F 29.71 in West 14.0 mph 22.0 mph 87 % 0.00 in 0 W/m2
05:27 40.6 °F 37.1 °F 29.71 in West 12.0 mph 21.0 mph 87 % 0.00 in 0 W/m2
05:30 40.5 °F 36.9 °F 29.71 in West 12.0 mph 19.0 mph 87 % 0.00 in 0 W/m2
05:31 40.5 °F 36.9 °F 29.71 in West 11.0 mph 19.0 mph 87 % 0.00 in 0 W/m2
05:36 40.5 °F 36.9 °F 29.71 in West 12.0 mph 19.0 mph 87 % 0.00 in 0 W/m2
05:38 40.5 °F 36.9 °F 29.71 in West 11.0 mph 18.0 mph 87 % 0.00 in 0 W/m2
05:47 40.3 °F 36.7 °F 29.71 in West 15.0 mph 22.0 mph 87 % 0.00 in 0 W/m2
05:50 40.3 °F 36.7 °F 29.71 in West 11.0 mph 19.0 mph 87 % 0.00 in 0 W/m2
05:52 40.3 °F 36.7 °F 29.71 in WSW 11.0 mph 18.0 mph 87 % 0.00 in 0 W/m2
05:57 40.3 °F 36.7 °F 29.71 in West 10.0 mph 18.0 mph 87 % 0.00 in 0 W/m2
06:01 40.3 °F 36.7 °F 29.71 in WSW 12.0 mph 22.0 mph 87 % 0.00 in 0 W/m2
06:06 40.3 °F 36.7 °F 29.71 in West 12.0 mph 20.0 mph 87 % 0.00 in 0 W/m2
06:08 40.3 °F 36.7 °F 29.71 in West 11.0 mph 20.0 mph 87 % 0.00 in 0 W/m2
06:10 40.1 °F 36.2 °F 29.71 in West 8.0 mph 13.0 mph 86 % 0.00 in 0 W/m2
06:13 39.9 °F 36.1 °F 29.71 in West 10.0 mph 19.0 mph 86 % 0.00 in 0 W/m2
06:18 39.9 °F 36.1 °F 29.71 in West 10.0 mph 15.0 mph 86 % 0.00 in 0 W/m2
06:23 39.9 °F 36.1 °F 29.71 in West 9.0 mph 15.0 mph 86 % 0.00 in 0 W/m2
06:28 39.9 °F 36.1 °F 29.71 in West 7.0 mph 11.0 mph 86 % 0.00 in 0 W/m2
06:29 39.9 °F 36.1 °F 29.70 in West 7.0 mph 11.0 mph 86 % 0.00 in 0 W/m2
06:34 39.9 °F 36.1 °F 29.70 in West 8.0 mph 12.0 mph 86 % 0.00 in 0 W/m2
06:35 39.9 °F 36.1 °F 29.70 in WNW 8.0 mph 12.0 mph 86 % 0.00 in 0 W/m2
06:40 39.7 °F 35.9 °F 29.70 in WNW 8.0 mph 11.0 mph 86 % 0.00 in 0 W/m2
06:45 39.6 °F 35.7 °F 29.70 in West 8.0 mph 11.0 mph 86 % 0.00 in 0 W/m2
06:46 39.6 °F 35.7 °F 29.70 in West 8.0 mph 11.0 mph 86 % 0.00 in 0 W/m2
06:51 39.6 °F 35.7 °F 29.70 in WNW 8.0 mph 12.0 mph 86 % 0.00 in 0 W/m2
06:53 39.6 °F 35.7 °F 29.70 in West 8.0 mph 11.0 mph 86 % 0.00 in 0 W/m2
06:56 39.6 °F 35.7 °F 29.70 in West 8.0 mph 12.0 mph 86 % 0.00 in 0 W/m2
06:58 39.6 °F 35.7 °F 29.70 in West 7.0 mph 11.0 mph 86 % 0.00 in 0 W/m2
07:03 39.6 °F 35.7 °F 29.70 in SW 1.0 mph 4.0 mph 86 % 0.00 in 0 W/m2
07:06 39.6 °F 35.7 °F 29.71 in WSW 1.0 mph 7.0 mph 86 % 0.00 in 0 W/m2
07:11 39.6 °F 35.7 °F 29.71 in WSW 5.0 mph 12.0 mph 86 % 0.00 in 0 W/m2
07:15 39.7 °F 35.6 °F 29.70 in SW 3.0 mph 8.0 mph 85 % 0.00 in 0 W/m2
07:16 39.7 °F 35.6 °F 29.70 in SW 2.0 mph 6.0 mph 85 % 0.00 in 0 W/m2
07:21 39.7 °F 35.6 °F 29.70 in WSW 4.0 mph 8.0 mph 85 % 0.00 in 0 W/m2
07:26 39.9 °F 35.8 °F 29.71 in SW 1.0 mph 4.0 mph 85 % 0.00 in 0 W/m2
07:28 39.9 °F 35.8 °F 29.71 in SW 1.0 mph 2.0 mph 85 % 0.00 in 0 W/m2
07:31 39.7 °F 35.6 °F 29.70 in South 1.0 mph 4.0 mph 85 % 0.00 in 0 W/m2
07:33 39.7 °F 35.6 °F 29.71 in SSE 1.0 mph 4.0 mph 85 % 0.00 in 0 W/m2
07:38 39.7 °F 35.3 °F 29.71 in SSE 1.0 mph 2.0 mph 84 % 0.00 in 0 W/m2
07:39 39.7 °F 35.3 °F 29.71 in SSE 1.0 mph 2.0 mph 84 % 0.00 in 0 W/m2
07:44 39.6 °F 35.4 °F 29.70 in South 4.0 mph 8.0 mph 85 % 0.00 in 0 W/m2
07:46 39.6 °F 35.4 °F 29.70 in South 5.0 mph 8.0 mph 85 % 0.00 in 0 W/m2
07:51 39.7 °F 35.3 °F 29.69 in South 4.0 mph 6.0 mph 84 % 0.00 in 0 W/m2
07:52 39.7 °F 35.3 °F 29.70 in South 3.0 mph 6.0 mph 84 % 0.00 in 0 W/m2
07:57 39.7 °F 35.3 °F 29.70 in South 5.0 mph 7.0 mph 84 % 0.00 in 0 W/m2
08:02 39.9 °F 35.5 °F 29.71 in South 4.0 mph 8.0 mph 84 % 0.00 in 0 W/m2
08:04 39.9 °F 35.2 °F 29.71 in South 4.0 mph 9.0 mph 83 % 0.00 in 0 W/m2
08:09 39.9 °F 35.2 °F 29.71 in SSE 4.0 mph 6.0 mph 83 % 0.00 in 0 W/m2
08:10 39.7 °F 35.0 °F 29.71 in SSE 4.0 mph 7.0 mph 83 % 0.00 in 0 W/m2
08:15 39.7 °F 35.0 °F 29.70 in SSE 3.0 mph 6.0 mph 83 % 0.00 in 0 W/m2
08:17 39.7 °F 35.0 °F 29.70 in SSE 4.0 mph 6.0 mph 83 % 0.00 in 0 W/m2
08:19 39.7 °F 35.0 °F 29.70 in SSE 2.0 mph 4.0 mph 83 % 0.00 in 0 W/m2
08:23 39.6 °F 34.8 °F 29.70 in South 1.0 mph 3.0 mph 83 % 0.00 in 0 W/m2
08:28 39.6 °F 35.1 °F 29.71 in SSW 4.0 mph 7.0 mph 84 % 0.00 in 0 W/m2
08:29 39.6 °F 35.1 °F 29.71 in SSW 4.0 mph 7.0 mph 84 % 0.00 in 0 W/m2
08:34 39.6 °F 35.1 °F 29.71 in SSW 3.0 mph 5.0 mph 84 % 0.00 in 0 W/m2
08:39 39.6 °F 35.1 °F 29.71 in SSW 1.0 mph 2.0 mph 84 % 0.00 in 0 W/m2
08:40 39.6 °F 35.1 °F 29.71 in SSW 1.0 mph 4.0 mph 84 % 0.00 in 0 W/m2
08:45 39.6 °F 34.8 °F 29.71 in SSW 3.0 mph 6.0 mph 83 % 0.00 in 0 W/m2
08:47 39.7 °F 35.0 °F 29.71 in SSW 5.0 mph 8.0 mph 83 % 0.00 in 0 W/m2
08:51 39.7 °F 35.0 °F 29.70 in SW 3.0 mph 6.0 mph 83 % 0.00 in 0 W/m2
08:56 39.9 °F 34.9 °F 29.70 in Calm   4.0 mph 82 % 0.00 in 0 W/m2
08:58 40.1 °F 35.0 °F 29.70 in Calm   2.0 mph 82 % 0.00 in 0 W/m2
09:04 40.1 °F 34.7 °F 29.69 in East 3.0 mph 5.0 mph 81 % 0.00 in 0 W/m2
09:09 40.3 °F 34.9 °F 29.68 in ESE 2.0 mph 4.0 mph 81 % 0.00 in 5 W/m2
09:11 40.3 °F 34.9 °F 29.68 in SE 1.0 mph 3.0 mph 81 % 0.00 in 5 W/m2
09:12 40.3 °F 34.9 °F 29.68 in SE 1.0 mph 3.0 mph 81 % 0.00 in 5 W/m2
09:17 40.3 °F 35.2 °F 29.67 in Calm   2.0 mph 82 % 0.00 in 7 W/m2
09:18 40.3 °F 35.2 °F 29.67 in Calm   2.0 mph 82 % 0.00 in 7 W/m2
09:23 40.3 °F 35.2 °F 29.67 in Calm     82 % 0.00 in 11 W/m2
09:25 40.3 °F 35.2 °F 29.67 in Calm   1.0 mph 82 % 0.00 in 11 W/m2
09:30 40.3 °F 35.5 °F 29.67 in South 3.0 mph 8.0 mph 83 % 0.00 in 11 W/m2
09:31 40.3 °F 35.5 °F 29.67 in South 3.0 mph 6.0 mph 83 % 0.00 in 11 W/m2
09:36 40.5 °F 35.7 °F 29.66 in South 2.0 mph 5.0 mph 83 % 0.00 in 11 W/m2
09:38 40.5 °F 35.7 °F 29.66 in South 2.0 mph 5.0 mph 83 % 0.00 in 11 W/m2
09:43 40.5 °F 35.7 °F 29.66 in SSW 2.0 mph 7.0 mph 83 % 0.00 in 9 W/m2
09:44 40.6 °F 35.9 °F 29.66 in SSW 2.0 mph 7.0 mph 83 % 0.00 in 9 W/m2
09:49 40.6 °F 35.6 °F 29.66 in SSW 9.0 mph 13.0 mph 82 % 0.00 in 9 W/m2
09:51 40.8 °F 35.7 °F 29.65 in SSW 6.0 mph 11.0 mph 82 % 0.00 in 9 W/m2
09:56 40.8 °F 35.7 °F 29.66 in SSW 6.0 mph 9.0 mph 82 % 0.00 in 7 W/m2
10:03 41.0 °F 35.9 °F 29.65 in SSW 7.0 mph 13.0 mph 82 % 0.00 in 12 W/m2
10:04 41.0 °F 35.9 °F 29.65 in SSW 9.0 mph 15.0 mph 82 % 0.00 in 14 W/m2
10:11 41.0 °F 35.9 °F 29.65 in SSW 9.0 mph 14.0 mph 82 % 0.00 in 14 W/m2
10:13 41.0 °F 35.9 °F 29.65 in SSW 11.0 mph 20.0 mph 82 % 0.00 in 16 W/m2
10:18 41.0 °F 35.9 °F 29.64 in South 6.0 mph 8.0 mph 82 % 0.00 in 18 W/m2
10:20 40.8 °F 35.7 °F 29.64 in South 6.0 mph 8.0 mph 82 % 0.00 in 19 W/m2
10:21 40.8 °F 35.7 °F 29.64 in SSE 5.0 mph 10.0 mph 82 % 0.00 in 19 W/m2
10:26 40.8 °F 35.7 °F 29.64 in SSE 6.0 mph 10.0 mph 82 % 0.00 in 16 W/m2
10:31 40.8 °F 36.1 °F 29.65 in South 7.0 mph 10.0 mph 83 % 0.00 in 14 W/m2
10:35 40.8 °F 36.4 °F 29.65 in South 5.0 mph 9.0 mph 84 % 0.00 in 12 W/m2
10:39 40.8 °F 36.4 °F 29.64 in SSE 5.0 mph 9.0 mph 84 % 0.00 in 16 W/m2
10:42 40.8 °F 36.7 °F 29.64 in SSE 6.0 mph 8.0 mph 85 % 0.00 in 18 W/m2
10:46 40.8 °F 37.0 °F 29.64 in SSE 6.0 mph 9.0 mph 86 % 0.01 in 30 W/m2
10:48 40.8 °F 37.0 °F 29.63 in SSE 6.0 mph 11.0 mph 86 % 0.01 in 33 W/m2
10:52 40.8 °F 37.3 °F 29.62 in SSE 7.0 mph 12.0 mph 87 % 0.01 in 35 W/m2
10:58 40.6 °F 37.4 °F 29.61 in South 8.0 mph 12.0 mph 88 % 0.01 in 28 W/m2
11:03 40.6 °F 37.7 °F 29.60 in South 8.0 mph 12.0 mph 89 % 0.02 in 30 W/m2
11:04 40.6 °F 37.7 °F 29.60 in SSE 8.0 mph 12.0 mph 89 % 0.02 in 30 W/m2
11:09 40.6 °F 37.7 °F 29.60 in South 9.0 mph 15.0 mph 89 % 0.02 in 39 W/m2
11:11 40.6 °F 37.7 °F 29.60 in South 9.0 mph 14.0 mph 89 % 0.02 in 39 W/m2
11:16 40.5 °F 37.8 °F 29.59 in South 9.0 mph 18.0 mph 90 % 0.02 in 35 W/m2
11:17 40.5 °F 37.8 °F 29.59 in South 9.0 mph 14.0 mph 90 % 0.02 in 33 W/m2
11:22 40.5 °F 37.8 °F 29.58 in SSE 9.0 mph 14.0 mph 90 % 0.02 in 40 W/m2
11:27 40.3 °F 37.9 °F 29.57 in SE 9.0 mph 14.0 mph 91 % 0.02 in 37 W/m2
11:32 40.3 °F 37.9 °F 29.57 in SE 9.0 mph 14.0 mph 91 % 0.02 in 42 W/m2
11:34 40.3 °F 37.9 °F 29.56 in SE 10.0 mph 15.0 mph 91 % 0.02 in 44 W/m2
11:37 40.3 °F 38.1 °F 29.56 in SSE 6.0 mph 11.0 mph 92 % 0.02 in 44 W/m2
11:42 40.3 °F 38.1 °F 29.56 in SSE 9.0 mph 12.0 mph 92 % 0.02 in 42 W/m2
11:43 40.5 °F 38.3 °F 29.56 in SSE 8.0 mph 12.0 mph 92 % 0.02 in 42 W/m2
11:45 40.5 °F 38.3 °F 29.55 in SSE 6.0 mph 10.0 mph 92 % 0.02 in 47 W/m2
11:46 40.5 °F 38.3 °F 29.55 in SSE 8.0 mph 14.0 mph 92 % 0.02 in 58 W/m2
11:51 40.5 °F 38.6 °F 29.54 in SSE 7.0 mph 14.0 mph 93 % 0.02 in 70 W/m2
11:56 40.5 °F 38.6 °F 29.54 in South 8.0 mph 14.0 mph 93 % 0.02 in 42 W/m2
11:57 40.5 °F 38.6 °F 29.54 in South 7.0 mph 13.0 mph 93 % 0.02 in 46 W/m2
12:00 40.5 °F 38.6 °F 29.53 in SSE 8.0 mph 15.0 mph 93 % 0.02 in 67 W/m2
12:03 40.5 °F 38.6 °F 29.53 in SSE 11.0 mph 16.0 mph 93 % 0.02 in 125 W/m2
12:08 40.6 °F 39.0 °F 29.52 in South 6.0 mph 12.0 mph 94 % 0.02 in 151 W/m2
12:13 40.6 °F 39.0 °F 29.52 in South 9.0 mph 14.0 mph 94 % 0.02 in 51 W/m2
12:14 40.6 °F 39.0 °F 29.52 in South 9.0 mph 18.0 mph 94 % 0.01 in 49 W/m2
12:19 40.8 °F 39.2 °F 29.51 in South 10.0 mph 19.0 mph 94 % 0.01 in 160 W/m2
12:21 40.8 °F 39.2 °F 29.51 in South 11.0 mph 21.0 mph 94 % 0.02 in 141 W/m2
12:26 40.8 °F 39.2 °F 29.51 in South 10.0 mph 21.0 mph 94 % 0.02 in 88 W/m2
12:29 41.0 °F 39.4 °F 29.50 in South 11.0 mph 16.0 mph 94 % 0.02 in 60 W/m2
12:35 41.0 °F 39.4 °F 29.50 in SSW 11.0 mph 22.0 mph 94 % 0.02 in 49 W/m2
12:37 41.2 °F 39.6 °F 29.50 in SSW 12.0 mph 21.0 mph 94 % 0.02 in 60 W/m2
12:39 41.2 °F 39.6 °F 29.50 in South 9.0 mph 15.0 mph 94 % 0.02 in 54 W/m2
12:43 41.2 °F 39.6 °F 29.50 in South 12.0 mph 22.0 mph 94 % 0.02 in 100 W/m2
12:48 41.2 °F 39.9 °F 29.49 in South 10.0 mph 18.0 mph 95 % 0.02 in 90 W/m2
12:49 41.2 °F 39.9 °F 29.49 in SSW 11.0 mph 18.0 mph 95 % 0.02 in 86 W/m2
12:50 41.4 °F 40.0 °F 29.49 in South 12.0 mph 19.0 mph 95 % 0.02 in 81 W/m2
12:55 41.4 °F 40.0 °F 29.48 in South 11.0 mph 18.0 mph 95 % 0.02 in 35 W/m2
12:56 41.4 °F 40.0 °F 29.49 in SSW 12.0 mph 20.0 mph 95 % 0.02 in 30 W/m2
13:01 41.4 °F 40.0 °F 29.48 in SSW 12.0 mph 21.0 mph 95 % 0.03 in 77 W/m2
13:03 41.5 °F 40.2 °F 29.48 in SSW 10.0 mph 18.0 mph 95 % 0.03 in 91 W/m2
13:05 41.5 °F 40.2 °F 29.48 in SSW 10.0 mph 19.0 mph 95 % 0.03 in 86 W/m2
13:08 41.5 °F 40.2 °F 29.48 in SSW 13.0 mph 20.0 mph 95 % 0.03 in 21 W/m2
13:10 41.7 °F 40.4 °F 29.48 in SSW 10.0 mph 14.0 mph 95 % 0.03 in 26 W/m2
13:15 41.7 °F 40.4 °F 29.49 in SSW 10.0 mph 14.0 mph 95 % 0.03 in 19 W/m2
13:17 41.7 °F 40.4 °F 29.48 in SW 8.0 mph 12.0 mph 95 % 0.03 in 25 W/m2
13:20 41.7 °F 40.4 °F 29.49 in SW 8.0 mph 10.0 mph 95 % 0.03 in 28 W/m2
13:24 41.9 °F 40.6 °F 29.48 in SW 7.0 mph 13.0 mph 95 % 0.02 in 47 W/m2
13:25 41.9 °F 40.6 °F 29.48 in SW 8.0 mph 13.0 mph 95 % 0.02 in 53 W/m2
13:30 42.1 °F 40.8 °F 29.48 in SW 9.0 mph 13.0 mph 95 % 0.02 in 46 W/m2
13:34 42.3 °F 40.9 °F 29.48 in SW 11.0 mph 21.0 mph 95 % 0.02 in 42 W/m2
13:37 42.3 °F 40.9 °F 29.48 in SW 11.0 mph 16.0 mph 95 % 0.02 in 54 W/m2
13:39 42.4 °F 41.1 °F 29.48 in WSW 9.0 mph 13.0 mph 95 % 0.02 in 37 W/m2
13:44 42.4 °F 41.1 °F 29.48 in SW 10.0 mph 14.0 mph 95 % 0.02 in 26 W/m2
13:46 42.6 °F 41.3 °F 29.48 in SW 10.0 mph 16.0 mph 95 % 0.01 in 25 W/m2
13:50 42.6 °F 41.3 °F 29.47 in SW 13.0 mph 19.0 mph 95 % 0.01 in 28 W/m2
13:55 42.8 °F 41.5 °F 29.46 in SW 11.0 mph 16.0 mph 95 % 0.01 in 58 W/m2
13:56 42.8 °F 41.5 °F 29.45 in SW 11.0 mph 16.0 mph 95 % 0.00 in 58 W/m2
14:01 43.0 °F 41.6 °F 29.44 in SW 10.0 mph 16.0 mph 95 % 0.00 in 69 W/m2
14:06 43.0 °F 41.4 °F 29.44 in SW 10.0 mph 16.0 mph 94 % 0.00 in 58 W/m2
14:08 43.0 °F 41.4 °F 29.44 in SW 8.0 mph 11.0 mph 94 % 0.00 in 63 W/m2
14:13 43.2 °F 41.6 °F 29.44 in SW 9.0 mph 12.0 mph 94 % 0.00 in 62 W/m2
14:15 43.3 °F 41.7 °F 29.44 in SW 9.0 mph 15.0 mph 94 % 0.00 in 51 W/m2
14:16 43.3 °F 41.7 °F 29.44 in SW 9.0 mph 15.0 mph 94 % 0.00 in 62 W/m2
14:21 43.5 °F 41.9 °F 29.44 in SW 9.0 mph 14.0 mph 94 % 0.00 in 63 W/m2
14:26 43.9 °F 42.3 °F 29.43 in WSW 9.0 mph 14.0 mph 94 % 0.00 in 51 W/m2
14:32 44.2 °F 42.6 °F 29.43 in WSW 7.0 mph 11.0 mph 94 % 0.00 in 49 W/m2
14:33 44.2 °F 42.6 °F 29.43 in SW 8.0 mph 12.0 mph 94 % 0.00 in 53 W/m2
14:34 44.2 °F 42.6 °F 29.43 in WSW 8.0 mph 12.0 mph 94 % 0.00 in 63 W/m2
14:39 44.4 °F 42.5 °F 29.43 in WSW 5.0 mph 9.0 mph 93 % 0.00 in 44 W/m2
14:40 44.4 °F 42.5 °F 29.43 in WSW 5.0 mph 9.0 mph 93 % 0.00 in 44 W/m2
14:44 44.6 °F 42.7 °F 29.43 in WSW 6.0 mph 10.0 mph 93 % 0.00 in 30 W/m2
14:46 44.6 °F 42.7 °F 29.43 in WSW 7.0 mph 11.0 mph 93 % 0.00 in 26 W/m2
14:51 44.8 °F 42.6 °F 29.43 in WSW 6.0 mph 8.0 mph 92 % 0.00 in 18 W/m2
14:54 44.8 °F 42.6 °F 29.43 in WSW 8.0 mph 12.0 mph 92 % 0.00 in 16 W/m2
14:55 44.8 °F 42.6 °F 29.43 in WSW 8.0 mph 11.0 mph 92 % 0.00 in 16 W/m2
14:59 44.8 °F 42.6 °F 29.43 in West 8.0 mph 11.0 mph 92 % 0.00 in 14 W/m2
15:04 45.1 °F 43.0 °F 29.43 in West 8.0 mph 12.0 mph 92 % 0.00 in 12 W/m2
15:07 45.3 °F 43.1 °F 29.43 in West 9.0 mph 14.0 mph 92 % 0.00 in 12 W/m2
15:09 45.3 °F 43.1 °F 29.43 in West 10.0 mph 14.0 mph 92 % 0.00 in 12 W/m2
15:14 45.7 °F 43.5 °F 29.43 in WSW 10.0 mph 18.0 mph 92 % 0.00 in 12 W/m2
15:16 45.9 °F 43.4 °F 29.43 in West 11.0 mph 18.0 mph 91 % 0.00 in 12 W/m2
15:19 46.0 °F 43.6 °F 29.44 in West 11.0 mph 16.0 mph 91 % 0.00 in 18 W/m2
15:24 46.2 °F 43.4 °F 29.44 in West 9.0 mph 14.0 mph 90 % 0.00 in 19 W/m2
15:25 46.2 °F 43.4 °F 29.44 in West 8.0 mph 13.0 mph 90 % 0.00 in 18 W/m2
15:29 46.2 °F 43.4 °F 29.44 in WSW 10.0 mph 14.0 mph 90 % 0.00 in 14 W/m2
15:31 46.4 °F 43.6 °F 29.44 in WSW 10.0 mph 14.0 mph 90 % 0.00 in 12 W/m2
15:34 46.4 °F 43.6 °F 29.44 in West 10.0 mph 15.0 mph 90 % 0.00 in 11 W/m2
15:38 46.6 °F 43.5 °F 29.43 in WSW 11.0 mph 16.0 mph 89 % 0.00 in 7 W/m2
15:43 46.8 °F 43.7 °F 29.42 in West 9.0 mph 14.0 mph 89 % 0.00 in 5 W/m2
15:44 46.8 °F 43.7 °F 29.42 in West 9.0 mph 14.0 mph 89 % 0.00 in 5 W/m2
15:49 46.8 °F 43.7 °F 29.42 in WSW 9.0 mph 15.0 mph 89 % 0.00 in 0 W/m2
15:54 46.9 °F 43.9 °F 29.42 in WSW 10.0 mph 19.0 mph 89 % 0.00 in 0 W/m2
15:56 46.9 °F 43.9 °F 29.42 in WSW 11.0 mph 20.0 mph 89 % 0.00 in 0 W/m2
16:01 46.9 °F 43.9 °F 29.42 in WSW 8.0 mph 12.0 mph 89 % 0.00 in 0 W/m2
16:05 47.1 °F 43.7 °F 29.41 in WSW 11.0 mph 22.0 mph 88 % 0.00 in 0 W/m2
16:10 47.1 °F 43.7 °F 29.41 in WSW 10.0 mph 19.0 mph 88 % 0.00 in 0 W/m2
16:12 47.1 °F 43.7 °F 29.41 in WSW 9.0 mph 13.0 mph 88 % 0.00 in 0 W/m2
16:13 47.1 °F 43.7 °F 29.41 in West 11.0 mph 21.0 mph 88 % 0.00 in 0 W/m2
16:18 47.5 °F 44.1 °F 29.40 in WSW 12.0 mph 18.0 mph 88 % 0.00 in 0 W/m2
16:23 47.5 °F 44.1 °F 29.40 in WSW 13.0 mph 24.0 mph 88 % 0.00 in 0 W/m2
16:24 47.7 °F 44.0 °F 29.40 in WSW 14.0 mph 24.0 mph 87 % 0.00 in 0 W/m2
16:29 47.8 °F 44.2 °F 29.40 in WSW 14.0 mph 21.0 mph 87 % 0.00 in 0 W/m2
16:33 48.0 °F 44.0 °F 29.40 in West 18.0 mph 29.0 mph 86 % 0.00 in 0 W/m2
16:35 48.0 °F 43.7 °F 29.39 in WSW 18.0 mph 27.0 mph 85 % 0.00 in 0 W/m2
16:40 48.0 °F 43.4 °F 29.40 in WSW 18.0 mph 26.0 mph 84 % 0.00 in 0 W/m2
16:41 48.0 °F 43.4 °F 29.39 in West 17.0 mph 26.0 mph 84 % 0.00 in 0 W/m2
16:46 48.0 °F 43.7 °F 29.39 in WSW 18.0 mph 27.0 mph 85 % 0.00 in 0 W/m2
16:47 48.0 °F 43.7 °F 29.39 in WSW 17.0 mph 27.0 mph 85 % 0.00 in 0 W/m2
16:52 48.0 °F 43.7 °F 29.38 in WSW 15.0 mph 22.0 mph 85 % 0.00 in 0 W/m2
16:53 47.8 °F 43.5 °F 29.38 in WSW 15.0 mph 22.0 mph 85 % 0.00 in 0 W/m2
16:54 47.8 °F 43.5 °F 29.38 in WSW 17.0 mph 23.0 mph 85 % 0.00 in 0 W/m2
16:59 47.8 °F 43.5 °F 29.38 in WSW 17.0 mph 25.0 mph 85 % 0.00 in 0 W/m2
17:03 47.7 °F 43.4 °F 29.37 in WSW 15.0 mph 22.0 mph 85 % 0.00 in 0 W/m2
17:08 47.7 °F 43.1 °F 29.37 in WSW 15.0 mph 22.0 mph 84 % 0.00 in 0 W/m2
17:10 47.7 °F 43.1 °F 29.36 in WSW 14.0 mph 23.0 mph 84 % 0.00 in 0 W/m2
17:30 47.7 °F 42.8 °F 29.35 in WSW 9.0 mph 12.0 mph 83 % 0.00 in 0 W/m2
17:32 47.7 °F 42.8 °F 29.35 in WSW 13.0 mph 26.0 mph 83 % 0.00 in 0 W/m2
17:37 47.5 °F 42.6 °F 29.35 in WSW 13.0 mph 21.0 mph 83 % 0.00 in 0 W/m2
17:38 47.5 °F 42.6 °F 29.35 in WSW 14.0 mph 21.0 mph 83 % 0.00 in 0 W/m2
17:43 47.5 °F 42.6 °F 29.35 in WSW 16.0 mph 23.0 mph 83 % 0.00 in 0 W/m2
17:44 47.5 °F 42.6 °F 29.35 in WSW 17.0 mph 24.0 mph 83 % 0.00 in 0 W/m2
17:46 47.5 °F 42.3 °F 29.36 in WSW 18.0 mph 27.0 mph 82 % 0.00 in 0 W/m2
17:50 47.5 °F 42.3 °F 29.35 in WSW 13.0 mph 19.0 mph 82 % 0.00 in 0 W/m2
17:55 47.5 °F 42.3 °F 29.35 in WSW 15.0 mph 23.0 mph 82 % 0.00 in 0 W/m2
17:58 47.3 °F 42.4 °F 29.35 in WSW 11.0 mph 16.0 mph 83 % 0.00 in 0 W/m2
18:03 47.1 °F 42.2 °F 29.34 in WSW 11.0 mph 15.0 mph 83 % 0.00 in 0 W/m2
18:08 47.1 °F 42.5 °F 29.34 in WSW 13.0 mph 21.0 mph 84 % 0.00 in 0 W/m2
18:09 47.1 °F 42.5 °F 29.34 in WSW 12.0 mph 21.0 mph 84 % 0.00 in 0 W/m2
18:14 46.9 °F 42.4 °F 29.33 in WSW 11.0 mph 19.0 mph 84 % 0.00 in 0 W/m2
18:20 46.9 °F 42.4 °F 29.33 in WSW 13.0 mph 19.0 mph 84 % 0.00 in 0 W/m2
18:24 46.9 °F 42.4 °F 29.32 in WSW 9.0 mph 14.0 mph 84 % 0.00 in 0 W/m2
18:26 46.9 °F 42.4 °F 29.32 in WSW 10.0 mph 16.0 mph 84 % 0.00 in 0 W/m2
18:31 46.8 °F 42.5 °F 29.31 in SW 11.0 mph 16.0 mph 85 % 0.00 in 0 W/m2
18:36 46.8 °F 42.5 °F 29.30 in SW 11.0 mph 18.0 mph 85 % 0.00 in 0 W/m2
18:41 46.8 °F 42.8 °F 29.30 in SW 10.0 mph 15.0 mph 86 % 0.00 in 0 W/m2
18:44 46.8 °F 42.8 °F 29.29 in WSW 11.0 mph 18.0 mph 86 % 0.00 in 0 W/m2
18:46 46.8 °F 42.8 °F 29.29 in SW 10.0 mph 18.0 mph 86 % 0.01 in 0 W/m2
18:51 46.6 °F 42.6 °F 29.29 in SW 9.0 mph 13.0 mph 86 % 0.01 in 0 W/m2
18:56 46.6 °F 42.6 °F 29.28 in SW 9.0 mph 13.0 mph 86 % 0.01 in 0 W/m2
18:58 46.6 °F 42.6 °F 29.28 in SW 9.0 mph 14.0 mph 86 % 0.01 in 0 W/m2
19:03 46.4 °F 42.7 °F 29.27 in SW 10.0 mph 14.0 mph 87 % 0.01 in 0 W/m2
19:07 46.2 °F 42.6 °F 29.27 in SW 9.0 mph 12.0 mph 87 % 0.01 in 0 W/m2
19:08 46.2 °F 42.6 °F 29.26 in SSW 9.0 mph 13.0 mph 87 % 0.01 in 0 W/m2
19:13 46.2 °F 42.9 °F 29.26 in South 10.0 mph 21.0 mph 88 % 0.01 in 0 W/m2
19:14 46.2 °F 42.9 °F 29.26 in SSW 12.0 mph 21.0 mph 88 % 0.01 in 0 W/m2
19:20 46.2 °F 42.9 °F 29.26 in South 10.0 mph 18.0 mph 88 % 0.01 in 0 W/m2
19:25 46.2 °F 43.2 °F 29.25 in South 7.0 mph 12.0 mph 89 % 0.01 in 0 W/m2
19:28 46.2 °F 43.2 °F 29.24 in South 8.0 mph 13.0 mph 89 % 0.01 in 0 W/m2
19:30 46.2 °F 43.2 °F 29.23 in SSE 10.0 mph 15.0 mph 89 % 0.01 in 0 W/m2
19:31 46.2 °F 43.2 °F 29.23 in SSE 10.0 mph 15.0 mph 89 % 0.01 in 0 W/m2
19:36 46.2 °F 43.2 °F 29.22 in SSE 10.0 mph 15.0 mph 89 % 0.01 in 0 W/m2
19:37 46.2 °F 43.4 °F 29.22 in SSE 10.0 mph 14.0 mph 90 % 0.01 in 0 W/m2
19:42 46.0 °F 43.3 °F 29.21 in SSE 7.0 mph 10.0 mph 90 % 0.01 in 0 W/m2
19:44 46.0 °F 43.3 °F 29.21 in SSE 6.0 mph 8.0 mph 90 % 0.01 in 0 W/m2
19:49 45.9 °F 43.1 °F 29.19 in SE 5.0 mph 8.0 mph 90 % 0.00 in 0 W/m2
19:50 45.9 °F 43.1 °F 29.19 in SE 5.0 mph 8.0 mph 90 % 0.00 in 0 W/m2
19:53 45.9 °F 43.1 °F 29.18 in ESE 6.0 mph 9.0 mph 90 % 0.00 in 0 W/m2
19:58 45.9 °F 43.4 °F 29.17 in ESE 7.0 mph 10.0 mph 91 % 0.00 in 0 W/m2
20:00 45.7 °F 43.2 °F 29.17 in SE 7.0 mph 10.0 mph 91 % 0.00 in 0 W/m2
20:05 45.7 °F 43.2 °F 29.16 in SE 8.0 mph 12.0 mph 91 % 0.00 in 0 W/m2
20:09 45.7 °F 43.5 °F 29.15 in SE 10.0 mph 14.0 mph 92 % 0.01 in 0 W/m2
20:14 45.5 °F 43.3 °F 29.14 in SE 10.0 mph 14.0 mph 92 % 0.01 in 0 W/m2
20:19 45.3 °F 43.1 °F 29.14 in SE 9.0 mph 13.0 mph 92 % 0.01 in 0 W/m2
20:24 45.3 °F 43.4 °F 29.13 in SSE 10.0 mph 18.0 mph 93 % 0.01 in 0 W/m2
20:25 45.3 °F 43.4 °F 29.13 in SSE 10.0 mph 18.0 mph 93 % 0.01 in 0 W/m2
20:30 45.3 °F 43.4 °F 29.12 in SSE 9.0 mph 13.0 mph 93 % 0.01 in 0 W/m2
20:31 45.3 °F 43.4 °F 29.12 in SSE 10.0 mph 13.0 mph 93 % 0.01 in 0 W/m2
20:36 45.3 °F 43.7 °F 29.10 in South 10.0 mph 18.0 mph 94 % 0.01 in 0 W/m2
20:37 45.3 °F 43.7 °F 29.10 in South 10.0 mph 18.0 mph 94 % 0.01 in 0 W/m2
20:39 45.3 °F 43.7 °F 29.10 in SSE 11.0 mph 22.0 mph 94 % 0.02 in 0 W/m2
20:42 45.3 °F 43.7 °F 29.09 in SSE 9.0 mph 15.0 mph 94 % 0.02 in 0 W/m2
20:47 45.3 °F 43.7 °F 29.08 in South 11.0 mph 16.0 mph 94 % 0.03 in 0 W/m2
20:49 45.3 °F 43.7 °F 29.08 in South 12.0 mph 18.0 mph 94 % 0.03 in 0 W/m2
20:50 45.3 °F 43.7 °F 29.08 in South 11.0 mph 18.0 mph 94 % 0.03 in 0 W/m2
20:52 45.3 °F 43.7 °F 29.07 in South 10.0 mph 16.0 mph 94 % 0.03 in 0 W/m2
20:56 45.5 °F 43.9 °F 29.07 in South 11.0 mph 21.0 mph 94 % 0.03 in 0 W/m2
21:01 45.5 °F 43.9 °F 29.06 in South 11.0 mph 20.0 mph 94 % 0.03 in 0 W/m2
21:05 45.7 °F 44.1 °F 29.04 in South 11.0 mph 20.0 mph 94 % 0.03 in 0 W/m2
21:10 45.9 °F 44.2 °F 29.03 in South 10.0 mph 19.0 mph 94 % 0.02 in 0 W/m2
21:12 46.0 °F 44.4 °F 29.03 in SSW 16.0 mph 25.0 mph 94 % 0.02 in 0 W/m2
21:15 46.2 °F 44.6 °F 29.03 in SSW 14.0 mph 27.0 mph 94 % 0.02 in 0 W/m2
21:19 46.4 °F 44.8 °F 29.02 in SSW 14.0 mph 25.0 mph 94 % 0.02 in 0 W/m2
21:24 46.8 °F 44.8 °F 29.01 in SSW 13.0 mph 22.0 mph 93 % 0.02 in 0 W/m2
21:29 46.9 °F 45.0 °F 29.00 in SSW 16.0 mph 26.0 mph 93 % 0.02 in 0 W/m2
21:34 47.3 °F 45.1 °F 28.99 in SSW 13.0 mph 23.0 mph 92 % 0.02 in 0 W/m2
21:36 47.5 °F 45.3 °F 28.99 in SSW 16.0 mph 28.0 mph 92 % 0.02 in 0 W/m2
21:41 47.7 °F 45.5 °F 28.99 in SW 14.0 mph 20.0 mph 92 % 0.01 in 0 W/m2
21:46 48.0 °F 45.8 °F 29.00 in SSW 18.0 mph 25.0 mph 92 % 0.02 in 0 W/m2
21:48 48.0 °F 45.8 °F 28.99 in SW 15.0 mph 25.0 mph 92 % 0.02 in 0 W/m2
21:49 48.0 °F 45.8 °F 29.00 in SW 15.0 mph 25.0 mph 92 % 0.02 in 0 W/m2
21:54 48.2 °F 46.3 °F 29.00 in SSW 16.0 mph 24.0 mph 93 % 0.03 in 0 W/m2
21:59 48.2 °F 46.3 °F 29.00 in SW 16.0 mph 24.0 mph 93 % 0.05 in 0 W/m2
22:00 48.4 °F 46.4 °F 29.00 in SW 16.0 mph 24.0 mph 93 % 0.05 in 0 W/m2
22:05 48.4 °F 46.4 °F 29.00 in WSW 16.0 mph 27.0 mph 93 % 0.05 in 0 W/m2
22:07 48.6 °F 46.6 °F 29.00 in West 16.0 mph 27.0 mph 93 % 0.05 in 0 W/m2
22:08 48.6 °F 46.6 °F 29.00 in WSW 16.0 mph 27.0 mph 93 % 0.05 in 0 W/m2
22:13 48.9 °F 46.7 °F 28.99 in WSW 16.0 mph 32.0 mph 92 % 0.05 in 0 W/m2
22:18 49.1 °F 46.3 °F 29.00 in West 23.0 mph 33.0 mph 90 % 0.06 in 0 W/m2
22:21 49.5 °F 46.1 °F 28.99 in WSW 23.0 mph 31.0 mph 88 % 0.06 in 0 W/m2
22:24 49.5 °F 45.8 °F 28.99 in West 19.0 mph 31.0 mph 87 % 0.06 in 0 W/m2
22:27 49.5 °F 45.4 °F 28.99 in West 18.0 mph 31.0 mph 86 % 0.06 in 0 W/m2
22:29 49.5 °F 45.4 °F 28.99 in West 21.0 mph 31.0 mph 86 % 0.06 in 0 W/m2
22:34 49.3 °F 45.3 °F 28.99 in West 22.0 mph 33.0 mph 86 % 0.06 in 0 W/m2
22:35 49.3 °F 45.3 °F 28.99 in West 19.0 mph 30.0 mph 86 % 0.06 in 0 W/m2
22:40 48.9 °F 44.9 °F 28.99 in West 22.0 mph 39.0 mph 86 % 0.06 in 0 W/m2
22:41 48.9 °F 44.9 °F 28.99 in West 23.0 mph 39.0 mph 86 % 0.06 in 0 W/m2
22:46 48.6 °F 43.9 °F 28.99 in West 21.0 mph 33.0 mph 84 % 0.04 in 0 W/m2
22:48 48.6 °F 43.9 °F 28.99 in West 21.0 mph 38.0 mph 84 % 0.03 in 0 W/m2
22:53 48.2 °F 43.0 °F 28.99 in West 18.0 mph 30.0 mph 82 % 0.02 in 0 W/m2
22:58 48.0 °F 42.8 °F 28.99 in West 23.0 mph 33.0 mph 82 % 0.02 in 0 W/m2
23:00 48.0 °F 42.5 °F 28.98 in West 21.0 mph 33.0 mph 81 % 0.01 in 0 W/m2
23:03 48.0 °F 42.5 °F 28.98 in West 20.0 mph 28.0 mph 81 % 0.01 in 0 W/m2
23:07 47.8 °F 42.0 °F 28.98 in West 24.0 mph 34.0 mph 80 % 0.01 in 0 W/m2
23:12 47.8 °F 41.3 °F 28.98 in West 23.0 mph 36.0 mph 78 % 0.01 in 0 W/m2
23:14 48.0 °F 41.5 °F 28.98 in West 21.0 mph 36.0 mph 78 % 0.00 in 0 W/m2
23:18 47.8 °F 41.0 °F 28.99 in West 23.0 mph 40.0 mph 77 % 0.00 in 0 W/m2
23:19 47.8 °F 41.0 °F 28.97 in West 24.0 mph 35.0 mph 77 % 0.00 in 0 W/m2
23:23 47.7 °F 40.5 °F 28.98 in West 25.0 mph 38.0 mph 76 % 0.00 in 0 W/m2
23:27 47.7 °F 40.1 °F 28.97 in West 24.0 mph 37.0 mph 75 % 0.00 in 0 W/m2
23:32 47.5 °F 39.9 °F 28.97 in West 26.0 mph 42.0 mph 75 % 0.00 in 0 W/m2
23:33 47.7 °F 40.1 °F 28.96 in West 27.0 mph 42.0 mph 75 % 0.00 in 0 W/m2
23:38 47.7 °F 39.8 °F 28.96 in West 27.0 mph 39.0 mph 74 % 0.00 in 0 W/m2
23:42 47.7 °F 39.8 °F 28.96 in West 26.0 mph 37.0 mph 74 % 0.00 in 0 W/m2
23:47 47.5 °F 39.9 °F 28.97 in West 28.0 mph 42.0 mph 75 % 0.00 in 0 W/m2
23:48 47.5 °F 39.9 °F 28.96 in West 29.0 mph 42.0 mph 75 % 0.00 in 0 W/m2
23:51 47.3 °F 39.8 °F 28.96 in West 24.0 mph 33.0 mph 75 % 0.00 in 0 W/m2
23:56 47.1 °F 39.9 °F 28.96 in West 22.0 mph 31.0 mph 76 % 0.00 in 0 W/m2
23:59 47.1 °F 39.9 °F 28.96 in West 23.0 mph 33.0 mph 76 % 0.00 in 0 W/m2
Delerius-Weather
Compliments of Weather Underground - 3 mb

Data updates at regular intervals.